sensor_id;sensor_type;location;lat;lon;timestamp;temperature;humidity
43772;HTU21D;59066;54.782;32.024;2023-04-24T00:02:18;12.72;42.93
43772;HTU21D;59066;54.782;32.024;2023-04-24T00:04:46;12.73;42.97
43772;HTU21D;59066;54.782;32.024;2023-04-24T00:07:13;12.72;42.90
43772;HTU21D;59066;54.782;32.024;2023-04-24T00:09:41;12.72;43.03
43772;HTU21D;59066;54.782;32.024;2023-04-24T00:12:09;12.72;42.90
43772;HTU21D;59066;54.782;32.024;2023-04-24T00:14:37;12.75;42.86
43772;HTU21D;59066;54.782;32.024;2023-04-24T00:17:05;12.70;43.27
43772;HTU21D;59066;54.782;32.024;2023-04-24T00:19:33;12.66;43.28
43772;HTU21D;59066;54.782;32.024;2023-04-24T00:22:02;12.62;43.58
43772;HTU21D;59066;54.782;32.024;2023-04-24T00:24:29;12.55;43.71
43772;HTU21D;59066;54.782;32.024;2023-04-24T00:26:57;12.56;43.77
43772;HTU21D;59066;54.782;32.024;2023-04-24T00:29:25;12.49;43.87
43772;HTU21D;59066;54.782;32.024;2023-04-24T00:31:52;12.50;43.80
43772;HTU21D;59066;54.782;32.024;2023-04-24T00:34:20;12.51;43.95
43772;HTU21D;59066;54.782;32.024;2023-04-24T00:36:48;12.56;43.77
43772;HTU21D;59066;54.782;32.024;2023-04-24T00:39:19;12.51;44.06
43772;HTU21D;59066;54.782;32.024;2023-04-24T00:41:47;12.52;44.10
43772;HTU21D;59066;54.782;32.024;2023-04-24T00:44:15;12.49;44.23
43772;HTU21D;59066;54.782;32.024;2023-04-24T00:46:42;12.49;44.17
43772;HTU21D;59066;54.782;32.024;2023-04-24T00:49:10;12.47;44.23
43772;HTU21D;59066;54.782;32.024;2023-04-24T00:51:39;12.46;44.32
43772;HTU21D;59066;54.782;32.024;2023-04-24T00:54:07;12.46;44.28
43772;HTU21D;59066;54.782;32.024;2023-04-24T00:56:35;12.45;44.37
43772;HTU21D;59066;54.782;32.024;2023-04-24T00:59:03;12.46;44.21
43772;HTU21D;59066;54.782;32.024;2023-04-24T01:01:31;12.47;44.14
43772;HTU21D;59066;54.782;32.024;2023-04-24T01:03:59;12.47;44.20
43772;HTU21D;59066;54.782;32.024;2023-04-24T01:06:29;12.46;44.19
43772;HTU21D;59066;54.782;32.024;2023-04-24T01:08:58;12.46;44.18
43772;HTU21D;59066;54.782;32.024;2023-04-24T01:11:29;12.44;44.23
43772;HTU21D;59066;54.782;32.024;2023-04-24T01:13:57;12.41;44.32
43772;HTU21D;59066;54.782;32.024;2023-04-24T01:16:26;12.40;44.31
43772;HTU21D;59066;54.782;32.024;2023-04-24T01:18:53;12.37;44.32
43772;HTU21D;59066;54.782;32.024;2023-04-24T01:21:21;12.34;44.38
43772;HTU21D;59066;54.782;32.024;2023-04-24T01:23:51;12.29;44.51
43772;HTU21D;59066;54.782;32.024;2023-04-24T01:26:19;12.25;44.63
43772;HTU21D;59066;54.782;32.024;2023-04-24T01:28:47;12.23;44.65
43772;HTU21D;59066;54.782;32.024;2023-04-24T01:31:15;12.23;44.61
43772;HTU21D;59066;54.782;32.024;2023-04-24T01:33:43;12.20;44.61
43772;HTU21D;59066;54.782;32.024;2023-04-24T01:36:11;12.20;44.67
43772;HTU21D;59066;54.782;32.024;2023-04-24T01:38:38;12.12;44.85
43772;HTU21D;59066;54.782;32.024;2023-04-24T01:41:06;12.10;44.96
43772;HTU21D;59066;54.782;32.024;2023-04-24T01:43:33;12.06;44.96
43772;HTU21D;59066;54.782;32.024;2023-04-24T01:46:01;12.02;45.12
43772;HTU21D;59066;54.782;32.024;2023-04-24T01:48:29;11.99;45.21
43772;HTU21D;59066;54.782;32.024;2023-04-24T01:50:57;11.98;45.32
43772;HTU21D;59066;54.782;32.024;2023-04-24T01:53:25;11.98;45.24
43772;HTU21D;59066;54.782;32.024;2023-04-24T01:55:53;11.97;45.29
43772;HTU21D;59066;54.782;32.024;2023-04-24T01:58:21;11.96;45.38
43772;HTU21D;59066;54.782;32.024;2023-04-24T02:00:48;11.96;45.36
43772;HTU21D;59066;54.782;32.024;2023-04-24T02:03:16;11.92;45.52
43772;HTU21D;59066;54.782;32.024;2023-04-24T02:05:44;11.90;45.66
43772;HTU21D;59066;54.782;32.024;2023-04-24T02:08:12;11.89;45.53
43772;HTU21D;59066;54.782;32.024;2023-04-24T02:10:40;11.90;45.52
43772;HTU21D;59066;54.782;32.024;2023-04-24T02:13:07;11.90;45.47
43772;HTU21D;59066;54.782;32.024;2023-04-24T02:15:35;11.89;45.45
43772;HTU21D;59066;54.782;32.024;2023-04-24T02:18:03;11.89;45.44
43772;HTU21D;59066;54.782;32.024;2023-04-24T02:20:31;11.88;45.52
43772;HTU21D;59066;54.782;32.024;2023-04-24T02:23:01;11.83;45.59
43772;HTU21D;59066;54.782;32.024;2023-04-24T02:25:29;11.84;45.48
43772;HTU21D;59066;54.782;32.024;2023-04-24T02:27:56;11.86;45.36
43772;HTU21D;59066;54.782;32.024;2023-04-24T02:30:25;11.91;45.12
43772;HTU21D;59066;54.782;32.024;2023-04-24T02:32:53;11.98;44.84
43772;HTU21D;59066;54.782;32.024;2023-04-24T02:35:21;12.03;44.63
43772;HTU21D;59066;54.782;32.024;2023-04-24T02:37:48;12.07;44.42
43772;HTU21D;59066;54.782;32.024;2023-04-24T02:40:16;12.12;44.25
43772;HTU21D;59066;54.782;32.024;2023-04-24T02:42:43;12.16;44.16
43772;HTU21D;59066;54.782;32.024;2023-04-24T02:45:11;12.18;44.04
43772;HTU21D;59066;54.782;32.024;2023-04-24T02:47:38;12.22;43.93
43772;HTU21D;59066;54.782;32.024;2023-04-24T02:50:07;12.21;43.91
43772;HTU21D;59066;54.782;32.024;2023-04-24T02:52:34;12.15;44.01
43772;HTU21D;59066;54.782;32.024;2023-04-24T02:55:02;12.10;44.29
43772;HTU21D;59066;54.782;32.024;2023-04-24T02:57:29;11.98;44.80
43772;HTU21D;59066;54.782;32.024;2023-04-24T02:59:57;11.84;45.30
43772;HTU21D;59066;54.782;32.024;2023-04-24T03:02:24;11.73;45.82
43772;HTU21D;59066;54.782;32.024;2023-04-24T03:04:52;11.64;46.13
43772;HTU21D;59066;54.782;32.024;2023-04-24T03:07:20;11.62;46.08
43772;HTU21D;59066;54.782;32.024;2023-04-24T03:09:47;11.59;46.26
43772;HTU21D;59066;54.782;32.024;2023-04-24T03:12:15;11.63;46.09
43772;HTU21D;59066;54.782;32.024;2023-04-24T03:14:45;11.67;46.11
43772;HTU21D;59066;54.782;32.024;2023-04-24T03:17:12;11.64;46.28
43772;HTU21D;59066;54.782;32.024;2023-04-24T03:19:40;11.68;46.41
43772;HTU21D;59066;54.782;32.024;2023-04-24T03:22:10;11.66;46.51
43772;HTU21D;59066;54.782;32.024;2023-04-24T03:24:39;11.67;46.56
43772;HTU21D;59066;54.782;32.024;2023-04-24T03:27:08;11.66;46.75
43772;HTU21D;59066;54.782;32.024;2023-04-24T03:29:54;11.69;46.67
43772;HTU21D;59066;54.782;32.024;2023-04-24T03:32:32;11.70;46.87
43772;HTU21D;59066;54.782;32.024;2023-04-24T03:35:01;11.71;46.74
43772;HTU21D;59066;54.782;32.024;2023-04-24T03:37:28;11.75;46.82
43772;HTU21D;59066;54.782;32.024;2023-04-24T03:40:09;11.78;46.68
43772;HTU21D;59066;54.782;32.024;2023-04-24T03:42:37;11.82;46.60
43772;HTU21D;59066;54.782;32.024;2023-04-24T03:45:06;11.87;46.47
43772;HTU21D;59066;54.782;32.024;2023-04-24T03:47:36;11.92;46.31
43772;HTU21D;59066;54.782;32.024;2023-04-24T03:50:05;11.98;46.14
43772;HTU21D;59066;54.782;32.024;2023-04-24T03:52:34;12.01;46.18
43772;HTU21D;59066;54.782;32.024;2023-04-24T03:55:01;12.04;46.12
43772;HTU21D;59066;54.782;32.024;2023-04-24T03:57:32;12.07;46.07
43772;HTU21D;59066;54.782;32.024;2023-04-24T04:00:13;12.05;46.00
43772;HTU21D;59066;54.782;32.024;2023-04-24T04:02:45;12.05;45.86
43772;HTU21D;59066;54.782;32.024;2023-04-24T04:05:13;12.03;45.92
43772;HTU21D;59066;54.782;32.024;2023-04-24T04:07:41;12.04;45.95
43772;HTU21D;59066;54.782;32.024;2023-04-24T04:10:08;12.06;46.01
43772;HTU21D;59066;54.782;32.024;2023-04-24T04:12:36;12.10;45.89
43772;HTU21D;59066;54.782;32.024;2023-04-24T04:15:04;12.16;45.69
43772;HTU21D;59066;54.782;32.024;2023-04-24T04:17:37;12.19;45.70
43772;HTU21D;59066;54.782;32.024;2023-04-24T04:20:08;12.20;45.77
43772;HTU21D;59066;54.782;32.024;2023-04-24T04:22:39;12.22;45.68
43772;HTU21D;59066;54.782;32.024;2023-04-24T04:25:12;12.19;45.83
43772;HTU21D;59066;54.782;32.024;2023-04-24T04:27:41;12.21;45.83
43772;HTU21D;59066;54.782;32.024;2023-04-24T04:30:11;12.25;45.84
43772;HTU21D;59066;54.782;32.024;2023-04-24T04:32:55;12.23;45.93
43772;HTU21D;59066;54.782;32.024;2023-04-24T04:35:23;12.26;45.71
43772;HTU21D;59066;54.782;32.024;2023-04-24T04:37:52;12.30;45.51
43772;HTU21D;59066;54.782;32.024;2023-04-24T04:40:43;12.22;45.54
43772;HTU21D;59066;54.782;32.024;2023-04-24T04:43:12;12.18;45.48
43772;HTU21D;59066;54.782;32.024;2023-04-24T04:45:52;12.21;45.53
43772;HTU21D;59066;54.782;32.024;2023-04-24T04:48:34;12.34;45.41
43772;HTU21D;59066;54.782;32.024;2023-04-24T04:51:04;12.38;45.12
43772;HTU21D;59066;54.782;32.024;2023-04-24T04:53:32;12.46;44.87
43772;HTU21D;59066;54.782;32.024;2023-04-24T04:56:01;12.66;44.64
43772;HTU21D;59066;54.782;32.024;2023-04-24T04:58:46;12.77;44.18
43772;HTU21D;59066;54.782;32.024;2023-04-24T05:01:16;12.80;44.11
43772;HTU21D;59066;54.782;32.024;2023-04-24T05:03:46;12.80;43.96
43772;HTU21D;59066;54.782;32.024;2023-04-24T05:06:16;12.84;43.94
43772;HTU21D;59066;54.782;32.024;2023-04-24T05:08:44;12.88;43.94
43772;HTU21D;59066;54.782;32.024;2023-04-24T05:11:42;12.84;43.99
43772;HTU21D;59066;54.782;32.024;2023-04-24T05:14:10;12.92;43.96
43772;HTU21D;59066;54.782;32.024;2023-04-24T05:16:40;12.96;43.71
43772;HTU21D;59066;54.782;32.024;2023-04-24T05:19:09;13.12;43.39
43772;HTU21D;59066;54.782;32.024;2023-04-24T05:21:40;13.31;43.13
43772;HTU21D;59066;54.782;32.024;2023-04-24T05:24:09;13.41;42.93
43772;HTU21D;59066;54.782;32.024;2023-04-24T05:26:56;13.55;42.71
43772;HTU21D;59066;54.782;32.024;2023-04-24T05:29:30;13.64;42.58
43772;HTU21D;59066;54.782;32.024;2023-04-24T05:31:58;13.78;42.48
43772;HTU21D;59066;54.782;32.024;2023-04-24T05:34:28;13.94;42.51
43772;HTU21D;59066;54.782;32.024;2023-04-24T05:36:57;14.14;42.47
43772;HTU21D;59066;54.782;32.024;2023-04-24T05:39:25;14.34;41.83
43772;HTU21D;59066;54.782;32.024;2023-04-24T05:41:53;14.47;41.26
43772;HTU21D;59066;54.782;32.024;2023-04-24T05:44:22;14.63;40.91
43772;HTU21D;59066;54.782;32.024;2023-04-24T05:46:49;14.74;40.81
43772;HTU21D;59066;54.782;32.024;2023-04-24T05:49:17;14.87;40.32
43772;HTU21D;59066;54.782;32.024;2023-04-24T05:51:45;14.92;40.32
43772;HTU21D;59066;54.782;32.024;2023-04-24T05:54:13;15.15;40.09
43772;HTU21D;59066;54.782;32.024;2023-04-24T05:56:41;15.18;39.04
43772;HTU21D;59066;54.782;32.024;2023-04-24T05:59:12;15.21;38.90
43772;HTU21D;59066;54.782;32.024;2023-04-24T06:01:40;15.12;38.85
43772;HTU21D;59066;54.782;32.024;2023-04-24T06:04:13;15.15;38.91
43772;HTU21D;59066;54.782;32.024;2023-04-24T06:06:41;15.18;38.86
43772;HTU21D;59066;54.782;32.024;2023-04-24T06:09:09;15.29;38.74
43772;HTU21D;59066;54.782;32.024;2023-04-24T06:11:38;15.37;38.57
43772;HTU21D;59066;54.782;32.024;2023-04-24T06:14:08;15.56;38.49
43772;HTU21D;59066;54.782;32.024;2023-04-24T06:16:41;15.63;38.09
43772;HTU21D;59066;54.782;32.024;2023-04-24T06:19:18;15.86;37.79
43772;HTU21D;59066;54.782;32.024;2023-04-24T06:21:46;15.92;37.53
43772;HTU21D;59066;54.782;32.024;2023-04-24T06:24:14;16.07;37.16
43772;HTU21D;59066;54.782;32.024;2023-04-24T06:26:43;16.17;36.85
43772;HTU21D;59066;54.782;32.024;2023-04-24T06:29:11;16.28;36.50
43772;HTU21D;59066;54.782;32.024;2023-04-24T06:31:38;16.37;36.39
43772;HTU21D;59066;54.782;32.024;2023-04-24T06:34:06;16.49;35.66
43772;HTU21D;59066;54.782;32.024;2023-04-24T06:36:34;16.54;35.37
43772;HTU21D;59066;54.782;32.024;2023-04-24T06:39:02;16.59;34.34
43772;HTU21D;59066;54.782;32.024;2023-04-24T06:41:30;16.65;34.12
43772;HTU21D;59066;54.782;32.024;2023-04-24T06:43:58;16.78;33.24
43772;HTU21D;59066;54.782;32.024;2023-04-24T06:46:25;16.88;32.66
43772;HTU21D;59066;54.782;32.024;2023-04-24T06:48:54;16.91;31.29
43772;HTU21D;59066;54.782;32.024;2023-04-24T06:51:25;16.84;30.97
43772;HTU21D;59066;54.782;32.024;2023-04-24T06:53:54;16.80;30.27
43772;HTU21D;59066;54.782;32.024;2023-04-24T06:56:23;16.90;30.63
43772;HTU21D;59066;54.782;32.024;2023-04-24T06:58:50;17.02;30.75
43772;HTU21D;59066;54.782;32.024;2023-04-24T07:01:18;17.07;30.79
43772;HTU21D;59066;54.782;32.024;2023-04-24T07:03:46;17.21;30.65
43772;HTU21D;59066;54.782;32.024;2023-04-24T07:06:14;17.33;30.34
43772;HTU21D;59066;54.782;32.024;2023-04-24T07:08:43;17.40;30.50
43772;HTU21D;59066;54.782;32.024;2023-04-24T07:11:10;17.47;30.54
43772;HTU21D;59066;54.782;32.024;2023-04-24T07:13:38;17.53;30.57
43772;HTU21D;59066;54.782;32.024;2023-04-24T07:16:09;17.60;30.59
43772;HTU21D;59066;54.782;32.024;2023-04-24T07:18:37;17.72;29.74
43772;HTU21D;59066;54.782;32.024;2023-04-24T07:21:04;17.83;29.24
43772;HTU21D;59066;54.782;32.024;2023-04-24T07:23:32;17.84;28.71
43772;HTU21D;59066;54.782;32.024;2023-04-24T07:25:59;17.85;28.61
43772;HTU21D;59066;54.782;32.024;2023-04-24T07:28:27;17.90;28.45
43772;HTU21D;59066;54.782;32.024;2023-04-24T07:30:58;18.07;28.53
43772;HTU21D;59066;54.782;32.024;2023-04-24T07:33:27;18.22;28.44
43772;HTU21D;59066;54.782;32.024;2023-04-24T07:35:54;18.23;27.57
43772;HTU21D;59066;54.782;32.024;2023-04-24T07:38:22;18.20;28.01
43772;HTU21D;59066;54.782;32.024;2023-04-24T07:40:49;18.25;27.81
43772;HTU21D;59066;54.782;32.024;2023-04-24T07:43:19;18.33;27.26
43772;HTU21D;59066;54.782;32.024;2023-04-24T07:45:47;18.34;26.72
43772;HTU21D;59066;54.782;32.024;2023-04-24T07:48:14;18.42;26.69
43772;HTU21D;59066;54.782;32.024;2023-04-24T07:50:45;18.38;25.89
43772;HTU21D;59066;54.782;32.024;2023-04-24T07:53:12;18.37;25.65
43772;HTU21D;59066;54.782;32.024;2023-04-24T07:55:40;18.22;26.28
43772;HTU21D;59066;54.782;32.024;2023-04-24T07:58:07;18.23;26.05
43772;HTU21D;59066;54.782;32.024;2023-04-24T08:00:35;18.21;25.47
43772;HTU21D;59066;54.782;32.024;2023-04-24T08:03:03;18.20;24.75
43772;HTU21D;59066;54.782;32.024;2023-04-24T08:05:30;18.15;24.14
43772;HTU21D;59066;54.782;32.024;2023-04-24T08:07:58;18.19;24.26
43772;HTU21D;59066;54.782;32.024;2023-04-24T08:10:26;18.25;24.50
43772;HTU21D;59066;54.782;32.024;2023-04-24T08:12:53;18.38;23.89
43772;HTU21D;59066;54.782;32.024;2023-04-24T08:15:22;18.47;22.54
43772;HTU21D;59066;54.782;32.024;2023-04-24T08:17:50;18.53;22.70
43772;HTU21D;59066;54.782;32.024;2023-04-24T08:20:17;18.53;22.91
43772;HTU21D;59066;54.782;32.024;2023-04-24T08:22:45;18.54;23.10
43772;HTU21D;59066;54.782;32.024;2023-04-24T08:25:14;18.52;23.72
43772;HTU21D;59066;54.782;32.024;2023-04-24T08:27:42;18.64;23.98
43772;HTU21D;59066;54.782;32.024;2023-04-24T08:30:10;18.80;24.08
43772;HTU21D;59066;54.782;32.024;2023-04-24T08:32:38;18.72;23.35
43772;HTU21D;59066;54.782;32.024;2023-04-24T08:35:05;18.70;22.97
43772;HTU21D;59066;54.782;32.024;2023-04-24T08:37:36;18.79;23.16
43772;HTU21D;59066;54.782;32.024;2023-04-24T08:40:13;18.85;22.93
43772;HTU21D;59066;54.782;32.024;2023-04-24T08:42:43;18.98;23.24
43772;HTU21D;59066;54.782;32.024;2023-04-24T08:45:13;18.92;23.08
43772;HTU21D;59066;54.782;32.024;2023-04-24T08:47:41;18.92;22.77
43772;HTU21D;59066;54.782;32.024;2023-04-24T08:50:10;19.05;22.63
43772;HTU21D;59066;54.782;32.024;2023-04-24T08:52:38;19.24;22.79
43772;HTU21D;59066;54.782;32.024;2023-04-24T08:55:05;19.37;22.14
43772;HTU21D;59066;54.782;32.024;2023-04-24T08:57:33;19.47;22.28
43772;HTU21D;59066;54.782;32.024;2023-04-24T09:00:03;19.65;22.61
43772;HTU21D;59066;54.782;32.024;2023-04-24T09:02:31;19.67;22.18
43772;HTU21D;59066;54.782;32.024;2023-04-24T09:05:02;19.71;22.21
43772;HTU21D;59066;54.782;32.024;2023-04-24T09:07:33;19.63;22.39
43772;HTU21D;59066;54.782;32.024;2023-04-24T09:10:03;19.79;22.50
43772;HTU21D;59066;54.782;32.024;2023-04-24T09:12:30;19.96;21.76
43772;HTU21D;59066;54.782;32.024;2023-04-24T09:14:58;20.22;22.10
43772;HTU21D;59066;54.782;32.024;2023-04-24T09:17:27;20.50;21.73
43772;HTU21D;59066;54.782;32.024;2023-04-24T09:19:55;20.54;21.44
43772;HTU21D;59066;54.782;32.024;2023-04-24T09:22:23;20.50;20.93
43772;HTU21D;59066;54.782;32.024;2023-04-24T09:25:03;20.32;20.73
43772;HTU21D;59066;54.782;32.024;2023-04-24T09:27:35;20.25;21.10
43772;HTU21D;59066;54.782;32.024;2023-04-24T09:30:03;20.28;21.08
43772;HTU21D;59066;54.782;32.024;2023-04-24T09:32:32;20.41;21.19
43772;HTU21D;59066;54.782;32.024;2023-04-24T09:37:36;20.60;20.96
43772;HTU21D;59066;54.782;32.024;2023-04-24T09:42:55;20.92;20.28
43772;HTU21D;59066;54.782;32.024;2023-04-24T09:45:28;20.85;20.44
43772;HTU21D;59066;54.782;32.024;2023-04-24T09:48:02;20.99;20.22
43772;HTU21D;59066;54.782;32.024;2023-04-24T09:50:32;21.00;20.37
43772;HTU21D;59066;54.782;32.024;2023-04-24T09:53:03;21.15;20.05
43772;HTU21D;59066;54.782;32.024;2023-04-24T09:55:31;21.21;19.65
43772;HTU21D;59066;54.782;32.024;2023-04-24T09:58:00;21.13;19.49
43772;HTU21D;59066;54.782;32.024;2023-04-24T10:00:29;21.45;19.62
43772;HTU21D;59066;54.782;32.024;2023-04-24T10:03:02;22.08;19.31
43772;HTU21D;59066;54.782;32.024;2023-04-24T10:05:34;22.87;18.78
43772;HTU21D;59066;54.782;32.024;2023-04-24T10:08:10;23.62;18.37
43772;HTU21D;59066;54.782;32.024;2023-04-24T10:10:45;24.49;17.64
43772;HTU21D;59066;54.782;32.024;2023-04-24T10:13:14;24.98;17.67
43772;HTU21D;59066;54.782;32.024;2023-04-24T10:15:45;24.74;16.25
43772;HTU21D;59066;54.782;32.024;2023-04-24T10:18:15;24.33;15.42
43772;HTU21D;59066;54.782;32.024;2023-04-24T10:20:44;24.47;15.95
43772;HTU21D;59066;54.782;32.024;2023-04-24T10:23:11;24.26;14.71
43772;HTU21D;59066;54.782;32.024;2023-04-24T10:25:43;24.24;15.25
43772;HTU21D;59066;54.782;32.024;2023-04-24T10:28:11;24.61;15.45
43772;HTU21D;59066;54.782;32.024;2023-04-24T10:30:42;25.13;15.24
43772;HTU21D;59066;54.782;32.024;2023-04-24T10:33:10;25.46;14.77
43772;HTU21D;59066;54.782;32.024;2023-04-24T10:35:42;25.71;14.24
43772;HTU21D;59066;54.782;32.024;2023-04-24T10:38:13;25.30;14.17
43772;HTU21D;59066;54.782;32.024;2023-04-24T10:40:42;24.59;14.32
43772;HTU21D;59066;54.782;32.024;2023-04-24T10:43:16;24.40;14.52
43772;HTU21D;59066;54.782;32.024;2023-04-24T10:46:04;23.91;15.03
43772;HTU21D;59066;54.782;32.024;2023-04-24T10:48:33;23.70;15.38
43772;HTU21D;59066;54.782;32.024;2023-04-24T10:51:01;23.85;15.34
43772;HTU21D;59066;54.782;32.024;2023-04-24T10:53:30;23.71;15.68
43772;HTU21D;59066;54.782;32.024;2023-04-24T10:56:06;23.15;15.79
43772;HTU21D;59066;54.782;32.024;2023-04-24T10:58:37;22.64;16.18
43772;HTU21D;59066;54.782;32.024;2023-04-24T11:01:06;22.31;16.53
43772;HTU21D;59066;54.782;32.024;2023-04-24T11:03:35;22.27;16.58
43772;HTU21D;59066;54.782;32.024;2023-04-24T11:06:06;22.29;16.78
43772;HTU21D;59066;54.782;32.024;2023-04-24T11:08:44;22.63;16.69
43772;HTU21D;59066;54.782;32.024;2023-04-24T11:11:14;22.66;16.58
43772;HTU21D;59066;54.782;32.024;2023-04-24T11:19:18;24.12;15.84
43772;HTU21D;59066;54.782;32.024;2023-04-24T11:22:00;24.24;15.82
43772;HTU21D;59066;54.782;32.024;2023-04-24T11:27:22;24.88;16.11
43772;HTU21D;59066;54.782;32.024;2023-04-24T11:30:00;24.79;15.43
43772;HTU21D;59066;54.782;32.024;2023-04-24T11:35:21;25.93;15.06
43772;HTU21D;59066;54.782;32.024;2023-04-24T11:37:54;26.56;14.62
43772;HTU21D;59066;54.782;32.024;2023-04-24T11:40:25;26.82;13.97
43772;HTU21D;59066;54.782;32.024;2023-04-24T11:42:53;26.48;13.29
43772;HTU21D;59066;54.782;32.024;2023-04-24T11:45:30;26.41;12.49
43772;HTU21D;59066;54.782;32.024;2023-04-24T11:47:58;26.45;12.92
43772;HTU21D;59066;54.782;32.024;2023-04-24T11:50:26;26.97;13.02
43772;HTU21D;59066;54.782;32.024;2023-04-24T11:52:55;27.28;12.87
43772;HTU21D;59066;54.782;32.024;2023-04-24T11:55:25;26.87;12.91
43772;HTU21D;59066;54.782;32.024;2023-04-24T11:57:56;25.84;12.78
43772;HTU21D;59066;54.782;32.024;2023-04-24T12:00:28;25.27;13.57
43772;HTU21D;59066;54.782;32.024;2023-04-24T12:03:07;25.72;13.01
43772;HTU21D;59066;54.782;32.024;2023-04-24T12:05:37;25.39;13.36
43772;HTU21D;59066;54.782;32.024;2023-04-24T12:08:05;24.68;13.86
43772;HTU21D;59066;54.782;32.024;2023-04-24T12:10:33;24.41;14.15
43772;HTU21D;59066;54.782;32.024;2023-04-24T12:13:02;24.08;14.44
43772;HTU21D;59066;54.782;32.024;2023-04-24T12:15:29;23.87;15.02
43772;HTU21D;59066;54.782;32.024;2023-04-24T12:17:57;23.77;15.19
43772;HTU21D;59066;54.782;32.024;2023-04-24T12:20:30;23.77;15.69
43772;HTU21D;59066;54.782;32.024;2023-04-24T12:22:59;23.60;15.74
43772;HTU21D;59066;54.782;32.024;2023-04-24T12:25:29;23.81;16.13
43772;HTU21D;59066;54.782;32.024;2023-04-24T12:30:33;24.15;15.97
43772;HTU21D;59066;54.782;32.024;2023-04-24T12:33:02;24.40;15.52
43772;HTU21D;59066;54.782;32.024;2023-04-24T12:35:31;24.90;15.55
43772;HTU21D;59066;54.782;32.024;2023-04-24T12:38:14;25.37;14.87
43772;HTU21D;59066;54.782;32.024;2023-04-24T12:40:43;24.92;14.54
43772;HTU21D;59066;54.782;32.024;2023-04-24T12:43:18;24.13;14.92
43772;HTU21D;59066;54.782;32.024;2023-04-24T12:45:49;23.58;15.52
43772;HTU21D;59066;54.782;32.024;2023-04-24T12:48:17;23.13;15.97
43772;HTU21D;59066;54.782;32.024;2023-04-24T12:50:44;22.93;16.48
43772;HTU21D;59066;54.782;32.024;2023-04-24T12:53:13;22.95;16.51
43772;HTU21D;59066;54.782;32.024;2023-04-24T12:55:41;22.97;16.48
43772;HTU21D;59066;54.782;32.024;2023-04-24T12:58:09;22.79;16.54
43772;HTU21D;59066;54.782;32.024;2023-04-24T13:00:36;22.47;16.87
43772;HTU21D;59066;54.782;32.024;2023-04-24T13:03:05;22.62;17.06
43772;HTU21D;59066;54.782;32.024;2023-04-24T13:05:33;22.49;17.41
43772;HTU21D;59066;54.782;32.024;2023-04-24T13:08:01;22.46;17.60
43772;HTU21D;59066;54.782;32.024;2023-04-24T13:10:28;22.43;17.55
43772;HTU21D;59066;54.782;32.024;2023-04-24T13:12:56;22.27;17.51
43772;HTU21D;59066;54.782;32.024;2023-04-24T13:15:24;22.23;17.63
43772;HTU21D;59066;54.782;32.024;2023-04-24T13:17:52;22.67;17.61
43772;HTU21D;59066;54.782;32.024;2023-04-24T13:20:19;22.94;17.10
43772;HTU21D;59066;54.782;32.024;2023-04-24T13:22:47;22.41;17.52
43772;HTU21D;59066;54.782;32.024;2023-04-24T13:25:14;22.21;17.67
43772;HTU21D;59066;54.782;32.024;2023-04-24T13:27:44;21.97;18.06
43772;HTU21D;59066;54.782;32.024;2023-04-24T13:30:11;21.69;18.14
43772;HTU21D;59066;54.782;32.024;2023-04-24T13:32:39;21.65;18.12
43772;HTU21D;59066;54.782;32.024;2023-04-24T13:35:07;21.57;18.70
43772;HTU21D;59066;54.782;32.024;2023-04-24T13:37:35;21.52;18.77
43772;HTU21D;59066;54.782;32.024;2023-04-24T13:40:03;21.45;18.92
43772;HTU21D;59066;54.782;32.024;2023-04-24T13:42:33;21.33;19.33
43772;HTU21D;59066;54.782;32.024;2023-04-24T13:45:01;21.20;19.26
43772;HTU21D;59066;54.782;32.024;2023-04-24T13:47:40;21.04;19.24
43772;HTU21D;59066;54.782;32.024;2023-04-24T13:50:09;20.99;19.28
43772;HTU21D;59066;54.782;32.024;2023-04-24T13:52:36;21.07;19.31
43772;HTU21D;59066;54.782;32.024;2023-04-24T13:55:05;21.08;19.27
43772;HTU21D;59066;54.782;32.024;2023-04-24T13:57:32;20.98;19.47
43772;HTU21D;59066;54.782;32.024;2023-04-24T14:00:00;20.91;19.62
43772;HTU21D;59066;54.782;32.024;2023-04-24T14:02:33;20.99;19.63
43772;HTU21D;59066;54.782;32.024;2023-04-24T14:05:00;20.93;19.75
43772;HTU21D;59066;54.782;32.024;2023-04-24T14:07:28;20.96;20.00
43772;HTU21D;59066;54.782;32.024;2023-04-24T14:09:56;20.99;20.03
43772;HTU21D;59066;54.782;32.024;2023-04-24T14:12:24;21.03;20.09
43772;HTU21D;59066;54.782;32.024;2023-04-24T14:14:51;21.06;20.14
43772;HTU21D;59066;54.782;32.024;2023-04-24T14:17:19;21.06;20.21
43772;HTU21D;59066;54.782;32.024;2023-04-24T14:19:46;21.17;20.23
43772;HTU21D;59066;54.782;32.024;2023-04-24T14:22:14;21.53;19.83
43772;HTU21D;59066;54.782;32.024;2023-04-24T14:24:42;21.51;19.85
43772;HTU21D;59066;54.782;32.024;2023-04-24T14:27:09;21.63;19.71
43772;HTU21D;59066;54.782;32.024;2023-04-24T14:29:37;21.43;19.61
43772;HTU21D;59066;54.782;32.024;2023-04-24T14:32:04;21.46;19.76
43772;HTU21D;59066;54.782;32.024;2023-04-24T14:34:32;21.53;19.75
43772;HTU21D;59066;54.782;32.024;2023-04-24T14:37:00;21.98;19.28
43772;HTU21D;59066;54.782;32.024;2023-04-24T14:39:28;22.12;19.06
43772;HTU21D;59066;54.782;32.024;2023-04-24T14:41:55;22.62;18.86
43772;HTU21D;59066;54.782;32.024;2023-04-24T14:44:23;22.50;18.46
43772;HTU21D;59066;54.782;32.024;2023-04-24T14:46:52;22.08;18.98
43772;HTU21D;59066;54.782;32.024;2023-04-24T14:49:20;21.84;19.02
43772;HTU21D;59066;54.782;32.024;2023-04-24T14:51:48;21.81;18.96
43772;HTU21D;59066;54.782;32.024;2023-04-24T14:54:15;21.73;19.05
43772;HTU21D;59066;54.782;32.024;2023-04-24T14:56:43;21.59;19.13
43772;HTU21D;59066;54.782;32.024;2023-04-24T14:59:11;21.54;19.25
43772;HTU21D;59066;54.782;32.024;2023-04-24T15:01:39;21.44;19.00
43772;HTU21D;59066;54.782;32.024;2023-04-24T15:04:06;21.22;19.30
43772;HTU21D;59066;54.782;32.024;2023-04-24T15:06:34;20.87;19.75
43772;HTU21D;59066;54.782;32.024;2023-04-24T15:09:03;20.78;19.95
43772;HTU21D;59066;54.782;32.024;2023-04-24T15:11:30;20.75;19.92
43772;HTU21D;59066;54.782;32.024;2023-04-24T15:13:58;20.74;19.99
43772;HTU21D;59066;54.782;32.024;2023-04-24T15:16:25;20.76;20.03
43772;HTU21D;59066;54.782;32.024;2023-04-24T15:18:53;20.57;20.33
43772;HTU21D;59066;54.782;32.024;2023-04-24T15:21:21;20.55;20.41
43772;HTU21D;59066;54.782;32.024;2023-04-24T15:23:48;20.46;20.54
43772;HTU21D;59066;54.782;32.024;2023-04-24T15:26:16;20.39;20.70
43772;HTU21D;59066;54.782;32.024;2023-04-24T15:28:43;20.41;20.73
43772;HTU21D;59066;54.782;32.024;2023-04-24T15:31:16;20.30;20.85
43772;HTU21D;59066;54.782;32.024;2023-04-24T15:33:44;20.31;20.94
43772;HTU21D;59066;54.782;32.024;2023-04-24T15:36:12;20.35;20.95